Latest Weather Observations for Rabbit Flat

IDD60801

Issued at 2:01 pm CST Wednesday 10 February 2016 (issued every 30 minutes, with the page automatically refreshed every 10 minutes)

About weather observations | Map of weather stations | Latest weather observations for NT | Other Formats
Station Details ID: 015666 Name: RABBIT FLAT Lat: -20.18 Lon: 130.01 Height: 340.0 m
Data from the previous 72 hours. | See also: Recent months at Rabbit Flat
Date/Time
CST
Temp
°C
App
Temp
°C
Dew
Point
Rel
Hum
%
Delta-T
°C
Wind Press
QNH
hPa
Press
MSL
hPa
Rain
since 9 am
mm
Dir
 
Spd
km/h
Gust
km/h
Spd
kts
Gust
kts
10/02:00pm 38.3 37.3 5.4 13 18.3 CALM 0 24 0 13 1008.5 - 0.0
10/01:30pm 38.5 33.2 6.9 14 18.0 SE 24 37 13 20 1008.9 - 0.0
10/01:00pm 38.1 33.9 7.6 15 17.5 E 19 28 10 15 1009.4 - 0.0
10/12:30pm 37.6 32.9 7.6 16 17.2 E 22 35 12 19 1010.0 - 0.0
10/12:00pm 37.8 37.9 10.0 18 16.5 CALM 0 24 0 13 1010.4 1007.7 0.0
10/11:30am 36.6 33.1 10.3 20 15.6 E 19 28 10 15 1010.9 - 0.0
10/11:00am 35.8 32.7 11.6 23 14.6 E 19 28 10 15 1011.2 - 0.0
10/10:30am 35.1 35.7 11.9 24 14.0 CALM 0 0 0 0 1011.5 - 0.0
10/10:00am 34.2 35.0 12.4 26 13.2 CALM 0 0 0 0 1011.7 - 0.0
10/09:30am 33.8 34.9 13.5 29 12.5 CALM 0 0 0 0 1011.7 - 0.0
10/09:00am 32.7 31.1 12.7 29 12.1 E 13 19 7 10 1011.5 1008.8 0.0
10/08:30am 31.4 30.3 13.1 32 11.1 E 11 17 6 9 1011.2 - 0.0
10/08:00am 30.0 31.9 15.8 42 8.9 CALM 0 7 0 4 1011.0 - 0.0
10/07:30am 26.8 28.3 17.7 57 5.8 SSE 6 7 3 4 1010.7 - 0.0
10/07:00am 25.0 26.1 17.1 61 5.0 SE 7 9 4 5 1010.5 - 0.0
10/06:30am 25.1 26.2 17.2 61 5.0 SSE 7 9 4 5 1010.2 - 0.0
10/06:00am 26.7 27.0 15.9 51 6.7 SE 9 11 5 6 1009.9 1007.1 0.0
10/05:30am 26.5 27.1 15.9 52 6.6 E 7 11 4 6 1009.5 - 0.0
10/05:00am 26.8 28.1 17.0 55 6.2 N 6 7 3 4 1009.3 - 0.0
10/04:30am 26.9 26.9 15.2 48 7.2 WNW 9 11 5 6 1009.3 - 0.0
10/04:00am 27.6 27.8 14.7 45 7.9 S 7 9 4 5 1009.4 - 0.0
10/03:30am 28.3 27.6 14.4 42 8.5 S 11 17 6 9 1009.3 - 0.0
10/03:00am 28.0 27.7 14.4 43 8.3 SE 9 11 5 6 1009.2 1006.5 0.0
10/02:30am 28.7 29.1 15.3 44 8.3 ENE 7 9 4 5 1009.1 - 0.0
10/02:00am 29.0 29.3 15.9 45 8.2 NNE 9 15 5 8 1009.1 - 0.0
10/01:30am 27.1 29.3 18.4 59 5.6 S 4 9 2 5 1009.7 - 0.0
10/01:00am 27.8 28.4 16.7 50 7.0 WSW 9 13 5 7 1009.5 - 0.0
10/12:30am 26.9 29.9 19.3 63 5.0 ESE 2 6 1 3 1009.8 - 0.0
10/12:00am 27.2 29.4 19.1 61 5.3 NE 6 9 3 5 1010.0 1007.2 0.0
 
Date/Time
CST
Temp
°C
App
Temp
°C
Dew
Point
Rel
Hum
%
Delta-T
°C
Wind Press
QNH
hPa
Press
MSL
hPa
Rain
since 9 am
mm
Dir
 
Spd
km/h
Gust
km/h
Spd
kts
Gust
kts
09/11:30pm 29.4 29.3 13.8 38 9.5 ESE 7 11 4 6 1010.1 - 0.0
09/11:00pm 29.0 28.6 15.1 42 8.6 SSW 11 15 6 8 1009.9 - 0.0
09/10:30pm 29.7 31.2 16.6 45 8.3 N 4 7 2 4 1009.8 - 0.0
09/10:00pm 30.5 31.5 17.7 46 8.3 NE 9 11 5 6 1009.7 - 0.0
09/09:30pm 32.3 33.7 14.4 33 11.1 CALM 0 0 0 0 1009.3 - 0.0
09/09:00pm 33.5 33.4 13.3 29 12.4 NE 6 7 3 4 1009.1 1006.4 0.0
09/08:30pm 35.6 33.4 9.4 20 15.3 SSW 11 26 6 14 1008.9 - 0.0
09/08:00pm 35.5 31.0 6.8 17 16.1 SSE 20 30 11 16 1008.5 - 0.0
09/07:30pm 32.9 36.4 19.6 45 8.9 CALM 0 0 0 0 1008.2 - 0.0
09/07:00pm 34.1 36.8 17.8 38 10.7 CALM 0 0 0 0 1008.2 - 0.0
09/06:30pm 36.0 36.3 10.9 22 15.0 CALM 0 0 0 0 1008.1 - 0.0
09/06:00pm 37.8 38.2 11.2 20 16.1 CALM 0 0 0 0 1008.0 1005.3 0.0
09/05:30pm 36.9 37.3 11.4 21 15.4 CALM 0 0 0 0 1008.0 - 0.0
09/05:00pm 37.7 33.5 8.1 16 17.1 SSE 20 30 11 16 1008.1 - 0.0
09/04:30pm 38.8 35.3 8.8 16 17.6 ESE 17 30 9 16 1008.2 - 0.0
09/04:00pm 38.6 34.1 8.4 16 17.6 SSE 22 32 12 17 1008.5 - 0.0
09/03:30pm 37.3 34.4 11.1 20 15.8 E 17 30 9 16 1008.8 - 0.0
09/03:00pm 37.3 33.4 8.8 17 16.6 SSE 19 28 10 15 1009.1 1006.4 0.0
09/02:30pm 38.5 38.2 8.8 16 17.4 CALM 0 0 0 0 1009.3 - 0.0
09/02:00pm 37.8 37.3 9.5 18 16.7 ESE 2 15 1 8 1010.0 - 0.0
09/01:30pm 38.2 35.7 11.0 19 16.4 ESE 15 30 8 16 1010.3 - 0.0
09/01:00pm 37.4 34.0 11.2 20 15.8 ENE 20 43 11 23 1010.6 - 0.0
09/12:30pm 36.8 36.3 10.7 20 15.6 E 4 32 2 17 1011.3 - 0.0
09/12:00pm 36.6 33.4 11.1 21 15.3 ESE 19 32 10 17 1011.8 1009.1 0.0
09/11:30am 35.9 32.7 12.0 23 14.5 E 20 32 11 17 1012.3 - 0.0
09/11:00am 35.8 32.9 13.0 25 14.0 E 20 33 11 18 1012.8 - 0.0
09/10:30am 35.0 32.0 12.5 25 13.7 E 20 32 11 17 1013.1 - 0.0
09/10:00am 34.0 35.1 13.5 29 12.6 CALM 0 0 0 0 1013.3 - 0.0
09/09:30am 33.1 34.5 14.4 32 11.6 CALM 0 0 0 0 1013.3 - 0.0
09/09:00am 32.0 32.7 14.6 34 10.8 E 4 20 2 11 1013.1 1010.4 0.0
09/08:30am 30.8 31.3 15.1 38 9.8 E 6 17 3 9 1013.0 - 0.0
09/08:00am 28.8 30.4 15.0 43 8.5 CALM 0 0 0 0 1012.8 - 0.0
09/07:30am 26.9 29.7 18.0 58 5.7 CALM 0 0 0 0 1012.6 - 0.0
09/07:00am 24.5 26.4 15.7 58 5.4 CALM 0 0 0 0 1012.2 - 0.0
09/06:30am 24.4 26.5 16.2 60 5.1 CALM 0 0 0 0 1012.0 - 0.0
09/06:00am 25.0 26.8 15.6 56 5.8 CALM 0 0 0 0 1011.5 1008.8 0.0
09/05:30am 24.0 26.8 18.0 69 3.8 CALM 0 0 0 0 1011.2 - 0.0
09/05:00am 24.0 27.0 18.5 71 3.5 CALM 0 0 0 0 1011.0 - 0.0
09/04:30am 24.3 27.3 18.5 70 3.7 CALM 0 0 0 0 1010.8 - 0.0
09/04:00am 26.1 28.5 17.1 57 5.7 CALM 0 0 0 0 1010.8 - 0.0
09/03:30am 26.5 29.1 17.4 57 5.8 CALM 0 0 0 0 1010.7 - 0.0
09/03:00am 27.4 29.8 17.0 53 6.6 CALM 0 0 0 0 1010.6 1007.9 0.0
09/02:30am 26.8 29.7 18.1 59 5.6 CALM 0 0 0 0 1010.6 - 0.0
09/02:00am 26.1 30.4 21.2 74 3.3 CALM 0 0 0 0 1010.6 - 0.0
09/01:30am 26.3 30.3 20.6 71 3.8 CALM 0 0 0 0 1010.7 - 0.0
09/01:00am 25.0 29.2 20.9 78 2.7 CALM 0 0 0 0 1010.9 - 0.0
09/12:30am 25.5 29.2 19.9 71 3.7 CALM 0 0 0 0 1011.1 - 0.0
09/12:00am 26.8 30.7 20.3 67 4.3 CALM 0 0 0 0 1011.2 1008.5 0.0
 
Date/Time
CST
Temp
°C
App
Temp
°C
Dew
Point
Rel
Hum
%
Delta-T
°C
Wind Press
QNH
hPa
Press
MSL
hPa
Rain
since 9 am
mm
Dir
 
Spd
km/h
Gust
km/h
Spd
kts
Gust
kts
08/11:30pm 27.5 30.8 19.1 60 5.5 CALM 0 0 0 0 1011.3 - 0.0
08/11:00pm 27.8 30.5 17.8 54 6.4 CALM 0 0 0 0 1011.2 - 0.0
08/10:30pm 28.8 30.8 15.9 45 8.1 CALM 0 0 0 0 1011.0 - 0.0
08/10:00pm 29.1 31.1 15.9 44 8.3 CALM 0 0 0 0 1010.7 - 0.0
08/09:30pm 30.0 31.4 14.4 38 9.6 CALM 0 0 0 0 1010.4 - 0.0
08/09:00pm 29.6 32.6 18.4 51 7.3 CALM 0 0 0 0 1010.1 1007.4 0.0
08/08:30pm 31.4 32.9 14.6 36 10.4 CALM 0 0 0 0 1009.9 - 0.0
08/08:00pm 32.3 33.0 15.7 36 10.5 E 6 9 3 5 1009.4 - 0.0
08/07:30pm 34.1 33.6 12.5 27 13.1 E 7 11 4 6 1009.1 - 0.0
08/07:00pm 35.6 34.1 10.5 21 14.9 ESE 9 15 5 8 1008.9 - 0.0
08/06:30pm 37.0 33.7 7.9 17 16.7 ESE 15 24 8 13 1008.7 - 0.0
08/06:00pm 37.3 34.2 8.8 17 16.6 E 15 24 8 13 1008.6 1005.9 0.0
08/05:30pm 37.1 33.6 8.7 17 16.5 E 17 24 9 13 1008.5 - 0.0
08/05:00pm 37.9 34.6 8.2 16 17.2 ESE 15 24 8 13 1008.5 - 0.0
08/04:30pm 38.3 34.0 7.8 15 17.6 SSE 20 30 11 16 1008.7 - 0.0
08/04:00pm 38.1 35.4 8.9 17 17.1 SE 13 24 7 13 1009.0 - 0.0
08/03:30pm 38.1 34.9 10.0 18 16.7 SE 17 26 9 14 1009.4 - 0.0
08/03:00pm 37.6 34.3 9.7 18 16.5 SE 17 26 9 14 1009.7 1006.9 0.0
08/02:30pm 37.6 33.9 10.2 19 16.3 SE 20 35 11 19 1010.2 - 0.0
08/02:00pm 37.3 33.5 9.7 18 16.3 SE 20 35 11 19 1010.5 - 0.0
08/01:30pm 36.9 32.3 9.5 19 16.1 SE 24 35 13 19 1010.9 - 0.0
08/01:00pm 36.7 34.4 11.8 22 15.1 E 15 28 8 15 1011.4 - 0.0
08/12:30pm 36.1 33.9 13.3 25 14.1 E 17 30 9 16 1012.0 - 0.0
08/12:00pm 35.6 32.2 11.2 22 14.6 SE 20 32 11 17 1012.5 1009.8 0.0
08/11:30am 35.0 31.2 11.0 23 14.3 ESE 22 35 12 19 1013.1 - 0.0
08/10:30am 34.4 29.8 11.0 24 13.9 E 26 41 14 22 1013.6 - 0.0
08/10:00am 33.8 28.7 10.5 24 13.7 E 28 44 15 24 1013.7 - 0.0
08/09:37am 33.1 27.6 9.3 23 13.7 E 28 46 15 25 1013.7 - 0.0
08/09:30am 32.7 28.2 9.9 24 13.2 E 24 43 13 23 1013.8 - 0.0
08/09:00am 31.9 27.0 9.9 25 12.7 E 26 41 14 22 1013.8 1011.1 0.0
08/08:30am 31.1 27.8 10.9 28 11.8 ESE 19 30 10 16 1013.6 - 0.0
08/08:00am 30.2 28.0 12.2 33 10.7 E 15 24 8 13 1013.4 - 0.0
08/07:30am 29.4 30.3 12.9 36 9.9 CALM 0 0 0 0 1013.3 - 0.0
08/07:00am 28.6 29.7 13.5 39 9.1 CALM 0 0 0 0 1013.0 - 0.0
08/06:30am 28.7 30.1 14.5 42 8.7 CALM 0 0 0 0 1012.6 - 0.0
08/06:00am 28.4 30.4 15.9 46 7.8 CALM 0 0 0 0 1012.2 1009.5 0.0
08/05:30am 29.3 30.7 14.5 40 9.1 CALM 0 0 0 0 1011.8 - 0.0
08/05:00am 30.5 31.4 12.9 34 10.6 CALM 0 0 0 0 1011.7 - 0.0
08/04:30am 29.6 31.6 15.9 43 8.6 CALM 0 0 0 0 1011.5 - 0.0
08/04:00am 29.7 31.9 16.6 45 8.3 CALM 0 0 0 0 1011.3 - 0.0
08/03:30am 30.5 32.3 15.5 40 9.4 CALM 0 0 0 0 1011.2 - 0.0
08/03:00am 30.1 32.4 16.8 44 8.5 CALM 0 0 0 0 1011.1 1008.4 0.0
08/02:30am 30.0 32.0 16.0 42 8.8 CALM 0 0 0 0 1011.0 - 0.0
08/02:00am 28.9 31.2 16.8 48 7.7 CALM 0 0 0 0 1010.8 - 0.0
08/01:30am 27.8 30.7 18.2 56 6.2 CALM 0 0 0 0 1011.2 - 0.0
08/01:00am 26.5 31.4 22.4 78 2.8 CALM 0 0 0 0 1011.0 - 0.0
08/12:30am 26.8 31.7 22.3 76 3.1 CALM 0 0 0 0 1011.1 - 0.0
08/12:00am 27.1 31.4 21.1 69 4.0 CALM 0 0 0 0 1011.2 1008.5 0.0
 
Date/Time
CST
Temp
°C
App
Temp
°C
Dew
Point
Rel
Hum
%
Delta-T
°C
Wind Press
QNH
hPa
Press
MSL
hPa
Rain
since 9 am
mm
Dir
 
Spd
km/h
Gust
km/h
Spd
kts
Gust
kts
07/11:30pm 27.2 31.5 21.1 69 4.1 CALM 0 0 0 0 1011.2 - 0.0
07/11:00pm 27.3 31.0 19.9 64 4.9 CALM 0 0 0 0 1011.1 - 0.0
07/10:30pm 27.6 32.1 21.5 69 4.1 CALM 0 0 0 0 1011.0 - 0.0
07/10:00pm 28.0 32.2 21.0 65 4.7 CALM 0 0 0 0 1010.7 - 0.0
07/09:30pm 28.3 32.6 21.2 65 4.8 CALM 0 0 0 0 1010.3 - 0.0
07/09:00pm 29.8 33.0 18.8 51 7.2 CALM 0 0 0 0 1010.0 1007.2 0.0
07/08:30pm 30.0 33.6 19.8 54 6.8 CALM 0 0 0 0 1009.7 - 0.0
07/08:00pm 31.8 33.9 16.2 39 9.9 CALM 0 0 0 0 1009.2 - 0.0
07/07:30pm 33.3 34.6 14.1 31 11.9 CALM 0 0 0 0 1008.7 - 0.0
07/07:00pm 34.9 35.8 12.9 26 13.5 CALM 0 0 0 0 1008.4 - 0.0
07/06:30pm 36.4 37.0 11.9 23 14.9 CALM 0 0 0 0 1008.2 - 0.0
07/06:00pm 37.1 37.1 9.9 19 16.1 CALM 0 0 0 0 1008.1 1005.4 0.0
07/05:30pm 37.3 38.1 12.4 22 15.3 CALM 0 0 0 0 1007.9 - 0.0
07/05:00pm 37.2 37.3 10.1 19 16.1 CALM 0 0 0 0 1007.8 - 0.0
07/04:30pm 37.0 37.4 11.3 21 15.5 CALM 0 0 0 0 1008.0 - 0.0
07/04:00pm 36.3 37.1 12.7 24 14.5 CALM 0 0 0 0 1008.2 - 0.0
07/03:30pm 36.8 34.0 11.5 21 15.3 ESE 17 32 9 17 1008.4 - 0.0
07/03:00pm 36.8 33.5 11.0 21 15.5 ESE 19 24 10 13 1008.7 1006.0 0.0
07/02:30pm 37.2 37.7 11.7 21 15.5 CALM 0 0 0 0 1009.1 - 0.0

Other Formats:

Comma delimited format used in spreadsheet applications
http://www.bom.gov.au/fwo/IDD60801/IDD60801.95322.axf

JavaScript Object Notation format (JSON) in row-major order
http://www.bom.gov.au/fwo/IDD60801/IDD60801.95322.json